createdAt,value
2022-08-03T00:00:32.462Z,13.10
2022-08-03T00:03:05.281Z,13.10
2022-08-03T00:05:35.690Z,13.20
2022-08-03T00:08:04.069Z,13.20
2022-08-03T00:10:33.020Z,13.10
2022-08-03T00:13:00.551Z,13.30
2022-08-03T00:15:28.529Z,13.30
2022-08-03T00:17:56.063Z,13.20
2022-08-03T00:20:24.068Z,13.20
2022-08-03T00:22:52.488Z,13.20
2022-08-03T00:25:20.083Z,13.00
2022-08-03T00:27:48.281Z,13.00
2022-08-03T00:30:16.898Z,13.20
2022-08-03T00:32:45.569Z,13.20
2022-08-03T00:35:35.124Z,13.00
2022-08-03T00:38:01.573Z,13.00
2022-08-03T00:40:29.549Z,13.00
2022-08-03T00:43:03.819Z,12.90
2022-08-03T00:45:35.936Z,12.90
2022-08-03T00:48:06.078Z,12.90
2022-08-03T00:50:48.321Z,13.10
2022-08-03T00:53:20.067Z,13.00
2022-08-03T00:55:48.016Z,13.10
2022-08-03T00:58:15.946Z,13.20
2022-08-03T01:00:43.661Z,13.20
2022-08-03T01:03:12.213Z,13.20
2022-08-03T01:05:52.228Z,13.20
2022-08-03T01:09:07.375Z,13.30
2022-08-03T01:12:00.921Z,13.40
2022-08-03T01:15:19.647Z,13.50
2022-08-03T01:18:03.513Z,13.50
2022-08-03T01:20:37.106Z,13.60
2022-08-03T01:23:35.948Z,13.60
2022-08-03T01:26:18.653Z,13.60
2022-08-03T01:29:01.724Z,13.60
2022-08-03T01:32:53.348Z,13.70
2022-08-03T01:35:09.905Z,13.70
2022-08-03T01:38:03.090Z,13.80
2022-08-03T01:40:35.207Z,13.90
2022-08-03T01:43:06.557Z,13.90
2022-08-03T01:45:37.757Z,13.80
2022-08-03T01:48:07.336Z,13.80
2022-08-03T01:50:36.465Z,13.80
2022-08-03T01:53:07.974Z,13.70
2022-08-03T01:55:38.295Z,13.70
2022-08-03T01:58:08.607Z,13.80
2022-08-03T02:00:38.647Z,13.60
2022-08-03T02:03:08.100Z,13.60
2022-08-03T02:05:39.463Z,13.60
2022-08-03T02:08:13.939Z,13.70
2022-08-03T02:10:46.257Z,13.70
2022-08-03T02:13:17.183Z,13.80
2022-08-03T02:15:46.504Z,13.70
2022-08-03T02:18:15.771Z,13.70
2022-08-03T02:20:44.765Z,13.70
2022-08-03T02:23:14.879Z,13.70
2022-08-03T02:25:48.359Z,13.70
2022-08-03T02:28:21.262Z,13.70
2022-08-03T02:30:56.240Z,13.70
2022-08-03T02:33:33.141Z,13.70
2022-08-03T02:36:04.546Z,13.70
2022-08-03T02:38:39.025Z,13.80
2022-08-03T02:41:18.135Z,13.70
2022-08-03T02:44:06.380Z,13.70
2022-08-03T02:46:39.784Z,13.60
2022-08-03T02:49:41.137Z,13.60
2022-08-03T02:52:00.349Z,13.60
2022-08-03T02:54:30.843Z,13.40
2022-08-03T02:57:01.014Z,13.40
2022-08-03T02:59:31.476Z,13.40
2022-08-03T03:02:02.355Z,13.30
2022-08-03T03:04:33.164Z,13.30
2022-08-03T03:07:04.587Z,13.30
2022-08-03T03:09:40.031Z,13.40
2022-08-03T03:12:14.566Z,13.40
2022-08-03T03:14:43.297Z,13.50
2022-08-03T03:17:12.897Z,13.50
2022-08-03T03:19:43.076Z,13.60
2022-08-03T03:22:13.078Z,13.50
2022-08-03T03:24:44.316Z,13.60
2022-08-03T03:27:16.745Z,13.60
2022-08-03T03:29:45.047Z,13.60
2022-08-03T03:32:14.587Z,13.70
2022-08-03T03:34:44.305Z,13.70
2022-08-03T03:37:12.114Z,13.80
2022-08-03T03:39:40.018Z,13.80
2022-08-03T03:42:07.947Z,14.00
2022-08-03T03:44:35.724Z,14.10
2022-08-03T03:47:03.878Z,14.30
2022-08-03T03:49:32.721Z,14.40
2022-08-03T03:52:00.398Z,14.50
2022-08-03T03:54:44.092Z,14.70
2022-08-03T03:57:12.949Z,14.80
2022-08-03T03:59:44.513Z,15.00
2022-08-03T04:02:12.546Z,15.10
2022-08-03T04:04:58.865Z,15.20
2022-08-03T04:07:46.232Z,15.30
2022-08-03T04:10:40.152Z,15.40
2022-08-03T04:13:14.509Z,15.50
2022-08-03T04:15:43.625Z,15.50
2022-08-03T04:18:17.121Z,15.50
2022-08-03T04:20:49.011Z,15.50
2022-08-03T04:23:22.710Z,15.70
2022-08-03T04:25:55.044Z,15.80
2022-08-03T04:28:30.363Z,16.00
2022-08-03T04:31:03.490Z,16.20
2022-08-03T04:33:35.820Z,16.30
2022-08-03T04:36:09.708Z,16.40
2022-08-03T04:38:54.489Z,16.60
2022-08-03T04:41:27.378Z,16.90
2022-08-03T04:44:00.418Z,17.10
2022-08-03T04:46:38.479Z,17.20
2022-08-03T04:49:08.970Z,17.30
2022-08-03T04:51:40.712Z,17.30
2022-08-03T04:54:14.434Z,17.30
2022-08-03T04:56:43.846Z,17.60
2022-08-03T04:59:12.893Z,17.70
2022-08-03T05:01:42.467Z,18.00
2022-08-03T05:04:10.543Z,18.40
2022-08-03T05:06:47.804Z,18.80
2022-08-03T05:09:16.222Z,19.10
2022-08-03T05:12:05.232Z,19.40
2022-08-03T05:14:34.600Z,19.80
2022-08-03T05:17:02.141Z,20.10
2022-08-03T05:19:29.980Z,20.40
2022-08-03T05:21:57.623Z,20.80
2022-08-03T05:24:25.233Z,20.90
2022-08-03T05:26:53.339Z,21.20
2022-08-03T05:29:20.903Z,21.20
2022-08-03T05:31:48.499Z,21.10
2022-08-03T05:34:16.285Z,21.10
2022-08-03T05:36:43.860Z,21.40
2022-08-03T05:39:11.476Z,21.30
2022-08-03T05:41:39.344Z,21.00
2022-08-03T05:44:06.883Z,20.80
2022-08-03T05:46:34.640Z,20.70
2022-08-03T05:49:02.564Z,20.60
2022-08-03T05:51:30.335Z,20.50
2022-08-03T05:53:57.850Z,20.30
2022-08-03T05:56:25.745Z,20.20
2022-08-03T05:58:53.722Z,20.20
2022-08-03T06:01:22.567Z,20.20
2022-08-03T06:03:52.172Z,21.30
2022-08-03T06:06:20.026Z,22.60
2022-08-03T06:08:48.951Z,22.40
2022-08-03T06:11:17.317Z,22.00
2022-08-03T06:13:45.513Z,24.00
2022-08-03T06:16:13.051Z,25.80
2022-08-03T06:18:41.092Z,26.60
2022-08-03T06:21:09.582Z,27.60
2022-08-03T06:23:52.852Z,27.90
2022-08-03T06:26:25.123Z,28.30
2022-08-03T06:28:54.553Z,28.80
2022-08-03T06:31:32.767Z,29.50
2022-08-03T06:34:33.305Z,30.10
2022-08-03T06:36:53.089Z,30.50
2022-08-03T06:39:23.205Z,30.90
2022-08-03T06:41:52.628Z,31.60
2022-08-03T06:44:20.421Z,31.50
2022-08-03T06:46:48.437Z,32.30
2022-08-03T06:49:16.284Z,33.00
2022-08-03T06:52:03.578Z,33.40
2022-08-03T06:54:33.202Z,33.50
2022-08-03T06:57:01.678Z,33.90
2022-08-03T07:00:07.493Z,33.60
2022-08-03T07:02:21.327Z,33.20
2022-08-03T07:04:49.992Z,33.10
2022-08-03T07:07:17.923Z,34.00
2022-08-03T07:09:56.428Z,34.70
2022-08-03T07:12:28.400Z,34.70
2022-08-03T07:15:00.648Z,32.70
2022-08-03T07:17:31.762Z,30.40
2022-08-03T07:20:01.688Z,29.90
2022-08-03T07:22:29.503Z,31.80
2022-08-03T07:24:57.667Z,32.20
2022-08-03T07:27:29.533Z,33.90
2022-08-03T07:29:58.810Z,35.30
2022-08-03T07:32:28.623Z,35.50
2022-08-03T07:35:00.481Z,36.30
2022-08-03T07:37:30.193Z,35.80
2022-08-03T07:39:58.449Z,34.90
2022-08-03T07:42:28.169Z,34.80
2022-08-03T07:44:56.898Z,35.30
2022-08-03T07:47:34.832Z,35.80
2022-08-03T07:50:06.676Z,35.90
2022-08-03T07:52:48.535Z,36.70
2022-08-03T07:55:21.940Z,37.20
2022-08-03T07:58:20.623Z,37.00
2022-08-03T08:00:53.331Z,36.40
2022-08-03T08:03:22.070Z,35.10
2022-08-03T08:05:50.077Z,34.70
2022-08-03T08:08:18.141Z,34.50
2022-08-03T08:10:58.534Z,34.40
2022-08-03T08:13:26.830Z,33.50
2022-08-03T08:15:54.863Z,32.80
2022-08-03T08:18:24.144Z,32.40
2022-08-03T08:20:52.326Z,34.40
2022-08-03T08:23:41.604Z,35.80
2022-08-03T08:26:11.814Z,36.40
2022-08-03T08:28:39.654Z,37.10
2022-08-03T08:31:10.491Z,36.70
2022-08-03T08:36:26.120Z,37.30
2022-08-03T08:38:53.993Z,37.10
2022-08-03T08:41:21.515Z,36.70
2022-08-03T08:43:49.069Z,36.70
2022-08-03T08:46:23.339Z,35.90
2022-08-03T08:48:54.060Z,36.00
2022-08-03T08:51:59.125Z,35.20
2022-08-03T08:54:18.167Z,35.60
2022-08-03T08:56:47.483Z,35.50
2022-08-03T08:59:15.739Z,35.20
2022-08-03T09:01:43.413Z,34.80
2022-08-03T09:04:12.501Z,35.20
2022-08-03T09:06:40.075Z,36.50
2022-08-03T09:09:08.429Z,36.60
2022-08-03T09:11:54.333Z,35.80
2022-08-03T09:14:36.933Z,36.60
2022-08-03T09:17:08.559Z,37.20
2022-08-03T09:19:37.843Z,37.70
2022-08-03T09:22:17.545Z,37.50
2022-08-03T09:25:22.730Z,37.50
2022-08-03T09:27:47.268Z,37.90
2022-08-03T09:30:19.140Z,36.20
2022-08-03T09:33:06.577Z,35.80
2022-08-03T09:35:53.530Z,36.20
2022-08-03T09:38:26.471Z,35.30
2022-08-03T09:41:00.233Z,33.40
2022-08-03T09:43:45.645Z,32.40
2022-08-03T09:46:13.561Z,31.00
2022-08-03T09:48:41.248Z,29.20
2022-08-03T09:51:14.307Z,30.90
2022-08-03T09:54:00.345Z,34.10
2022-08-03T09:56:45.761Z,35.70
2022-08-03T09:59:26.463Z,35.70
2022-08-03T10:01:56.526Z,34.40
2022-08-03T10:04:25.041Z,36.10
2022-08-03T10:07:11.322Z,37.20
2022-08-03T10:10:30.282Z,38.50
2022-08-03T10:12:51.150Z,39.20
2022-08-03T10:16:22.080Z,38.00
2022-08-03T10:18:07.862Z,38.30
2022-08-03T10:20:44.379Z,38.10
2022-08-03T10:23:14.323Z,36.90
2022-08-03T10:25:47.747Z,36.50
2022-08-03T10:28:19.994Z,36.80
2022-08-03T10:30:55.609Z,36.90
2022-08-03T10:33:51.950Z,38.20
2022-08-03T10:36:27.511Z,38.30
2022-08-03T10:38:57.227Z,37.80
2022-08-03T10:41:34.592Z,36.70
2022-08-03T10:44:19.237Z,36.60
2022-08-03T10:46:48.997Z,35.90
2022-08-03T10:49:33.776Z,36.00
2022-08-03T10:52:13.626Z,36.80
2022-08-03T10:55:12.167Z,37.50
2022-08-03T10:57:49.911Z,37.90
2022-08-03T11:00:24.803Z,38.00
2022-08-03T11:03:18.935Z,37.60
2022-08-03T11:05:49.741Z,39.00
2022-08-03T11:08:28.685Z,39.30
2022-08-03T11:11:23.639Z,38.30
2022-08-03T11:14:08.092Z,36.70
2022-08-03T11:16:39.320Z,37.50
2022-08-03T11:19:11.762Z,37.90
2022-08-03T11:21:51.693Z,38.60
2022-08-03T11:24:41.026Z,37.90
2022-08-03T11:27:18.216Z,37.70
2022-08-03T11:30:10.582Z,38.70
2022-08-03T11:32:38.306Z,39.50
2022-08-03T11:35:16.804Z,38.20
2022-08-03T11:38:07.410Z,38.30
2022-08-03T11:40:50.390Z,38.70
2022-08-03T11:43:37.479Z,38.30
2022-08-03T11:46:28.538Z,37.70
2022-08-03T11:49:10.706Z,37.90
2022-08-03T11:51:40.876Z,37.70
2022-08-03T11:54:08.706Z,37.50
2022-08-03T11:56:50.159Z,38.80
2022-08-03T11:59:22.110Z,38.10
2022-08-03T12:01:50.994Z,37.90
2022-08-03T12:04:19.254Z,38.60
2022-08-03T12:07:02.270Z,38.50
2022-08-03T12:09:30.174Z,38.40
2022-08-03T12:12:00.544Z,39.50
2022-08-03T12:14:50.625Z,39.10
2022-08-03T12:17:18.889Z,39.60
2022-08-03T12:19:47.515Z,39.40
2022-08-03T12:22:16.906Z,39.30
2022-08-03T12:24:47.462Z,39.50
2022-08-03T12:27:29.601Z,39.10
2022-08-03T12:30:00.983Z,38.40
2022-08-03T12:32:30.308Z,37.80
2022-08-03T12:35:05.123Z,35.60
2022-08-03T12:37:36.303Z,33.70
2022-08-03T12:40:20.528Z,35.00
2022-08-03T12:42:55.466Z,37.30
2022-08-03T12:45:32.066Z,37.50
2022-08-03T12:48:02.402Z,36.10
2022-08-03T12:51:00.474Z,36.10
2022-08-03T12:53:30.441Z,37.20
2022-08-03T12:56:06.119Z,36.80
2022-08-03T12:58:36.780Z,36.10
2022-08-03T13:01:09.807Z,35.90
2022-08-03T13:03:50.221Z,35.50
2022-08-03T13:06:25.531Z,34.70
2022-08-03T13:09:08.398Z,34.20
2022-08-03T13:11:57.659Z,35.20
2022-08-03T13:14:24.147Z,35.70
2022-08-03T13:16:52.708Z,36.40
2022-08-03T13:19:20.430Z,35.20
2022-08-03T13:21:53.406Z,35.00
2022-08-03T13:24:32.785Z,35.10
2022-08-03T13:27:21.928Z,35.40
2022-08-03T13:29:51.167Z,35.40
2022-08-03T13:32:20.124Z,35.80
2022-08-03T13:34:48.189Z,37.00
2022-08-03T13:37:16.365Z,38.20
2022-08-03T13:39:48.268Z,38.40
2022-08-03T13:42:30.542Z,38.60
2022-08-03T13:45:00.521Z,36.70
2022-08-03T13:47:28.704Z,35.80
2022-08-03T13:50:01.387Z,37.60
2022-08-03T13:52:36.510Z,38.70
2022-08-03T13:55:08.450Z,38.00
2022-08-03T13:58:05.171Z,36.80
2022-08-03T14:00:28.708Z,36.30
2022-08-03T14:03:16.433Z,35.40
2022-08-03T14:05:44.787Z,32.90
2022-08-03T14:08:13.500Z,30.80
2022-08-03T14:10:44.902Z,31.60
2022-08-03T14:13:17.544Z,35.40
2022-08-03T14:15:49.830Z,37.40
2022-08-03T14:18:27.880Z,37.10
2022-08-03T14:21:04.945Z,35.00
2022-08-03T14:23:35.517Z,33.40
2022-08-03T14:26:04.319Z,35.90
2022-08-03T14:28:31.989Z,34.60
2022-08-03T14:31:00.179Z,36.40
2022-08-03T14:33:28.688Z,37.70
2022-08-03T14:35:56.563Z,37.60
2022-08-03T14:38:25.099Z,37.60
2022-08-03T14:40:53.391Z,37.20
2022-08-03T14:43:21.665Z,37.30
2022-08-03T14:45:53.597Z,37.40
2022-08-03T14:50:29.532Z,38.00
2022-08-03T14:51:11.725Z,38.00
2022-08-03T14:53:40.074Z,37.80
2022-08-03T14:56:10.483Z,36.60
2022-08-03T14:58:38.979Z,36.20
2022-08-03T15:02:05.090Z,35.60
2022-08-03T15:03:55.418Z,35.70
2022-08-03T15:06:23.360Z,35.60
2022-08-03T15:09:13.773Z,35.70
2022-08-03T15:11:39.427Z,35.10
2022-08-03T15:14:09.308Z,34.60
2022-08-03T15:16:38.768Z,34.70
2022-08-03T15:20:02.079Z,34.40
2022-08-03T15:21:54.583Z,34.40
2022-08-03T15:24:22.656Z,34.40
2022-08-03T15:26:53.487Z,33.90
2022-08-03T15:30:07.341Z,33.40
2022-08-03T15:32:09.784Z,33.40
2022-08-03T15:34:38.283Z,32.90
2022-08-03T15:37:16.439Z,31.80
2022-08-03T15:39:59.578Z,30.90
2022-08-03T15:42:33.168Z,30.30
2022-08-03T15:45:01.849Z,29.90
2022-08-03T15:47:29.925Z,29.50
2022-08-03T15:49:57.824Z,29.40
2022-08-03T15:52:28.251Z,29.10
2022-08-03T15:54:56.364Z,29.00
2022-08-03T15:57:24.407Z,28.90
2022-08-03T15:59:52.720Z,28.80
2022-08-03T16:02:21.118Z,28.60
2022-08-03T16:04:49.103Z,28.60
2022-08-03T16:07:37.021Z,28.40
2022-08-03T16:10:05.640Z,28.30
2022-08-03T16:12:33.592Z,28.20
2022-08-03T16:15:02.339Z,28.10
2022-08-03T16:17:30.130Z,28.00
2022-08-03T16:19:58.582Z,28.10
2022-08-03T16:22:27.742Z,28.00
2022-08-03T16:24:56.409Z,28.00
2022-08-03T16:27:58.186Z,27.90
2022-08-03T16:30:16.851Z,27.80
2022-08-03T16:32:45.937Z,27.90
2022-08-03T16:35:19.649Z,27.80
2022-08-03T16:37:54.642Z,27.70
2022-08-03T16:40:26.172Z,27.70
2022-08-03T16:42:54.709Z,27.60
2022-08-03T16:45:23.303Z,27.50
2022-08-03T16:48:01.467Z,27.50
2022-08-03T16:50:36.003Z,27.40
2022-08-03T16:53:15.630Z,27.30
2022-08-03T16:55:53.654Z,27.20
2022-08-03T16:58:34.394Z,27.10
2022-08-03T17:01:21.846Z,27.00
2022-08-03T17:04:04.661Z,26.90
2022-08-03T17:06:44.809Z,26.70
2022-08-03T17:09:20.851Z,26.80
2022-08-03T17:11:52.042Z,26.80
2022-08-03T17:14:28.489Z,26.70
2022-08-03T17:17:01.771Z,26.70
2022-08-03T17:19:32.793Z,26.70
2022-08-03T17:22:16.070Z,26.60
2022-08-03T17:24:53.813Z,26.50
2022-08-03T17:28:49.455Z,26.30
2022-08-03T17:30:20.766Z,26.20
2022-08-03T17:32:57.601Z,26.10
2022-08-03T17:35:36.379Z,26.00
2022-08-03T17:38:12.049Z,25.80
2022-08-03T17:40:48.170Z,25.70
2022-08-03T17:44:14.170Z,25.60
2022-08-03T17:46:10.974Z,25.80
2022-08-03T17:48:41.520Z,25.60
2022-08-03T17:51:52.912Z,25.40
2022-08-03T17:54:33.676Z,25.20
2022-08-03T17:58:02.330Z,25.00
2022-08-03T18:00:51.524Z,24.90
2022-08-03T18:06:56.361Z,24.80
2022-08-03T18:10:05.966Z,24.60
2022-08-03T18:12:29.534Z,24.40
2022-08-03T18:15:07.741Z,24.10
2022-08-03T18:20:41.143Z,23.50
2022-08-03T18:23:25.305Z,23.40
2022-08-03T18:26:04.702Z,23.50
2022-08-03T18:28:36.455Z,23.30
2022-08-03T18:31:06.053Z,23.10
2022-08-03T18:34:19.211Z,22.80
2022-08-03T18:36:33.253Z,22.80
2022-08-03T18:39:04.053Z,22.70
2022-08-03T18:41:34.808Z,22.70
2022-08-03T18:44:07.206Z,22.50
2022-08-03T18:47:07.327Z,22.40
2022-08-03T18:50:20.053Z,22.40
2022-08-03T18:52:59.591Z,22.20
2022-08-03T18:55:35.553Z,22.30
2022-08-03T18:58:15.699Z,22.40
2022-08-03T19:01:57.386Z,22.50
2022-08-03T19:04:16.993Z,22.50
2022-08-03T19:06:50.044Z,22.50
2022-08-03T19:09:47.289Z,22.50
2022-08-03T19:12:40.366Z,22.40
2022-08-03T19:15:15.749Z,22.40
2022-08-03T19:17:53.398Z,22.30
2022-08-03T19:20:29.030Z,22.10
2022-08-03T19:23:00.373Z,22.00
2022-08-03T19:25:34.467Z,21.90
2022-08-03T19:28:07.208Z,21.90
2022-08-03T19:30:53.486Z,21.80
2022-08-03T19:33:29.790Z,21.70
2022-08-03T19:35:58.644Z,21.60
2022-08-03T19:38:29.784Z,21.40
2022-08-03T19:41:03.041Z,21.40
2022-08-03T19:43:49.606Z,21.20
2022-08-03T19:46:30.128Z,20.90
2022-08-03T19:49:16.721Z,20.60
2022-08-03T19:52:00.759Z,20.50
2022-08-03T19:55:03.984Z,20.40
2022-08-03T19:57:34.969Z,20.30
2022-08-03T20:00:08.902Z,20.30
2022-08-03T20:02:41.263Z,20.20
2022-08-03T20:05:14.863Z,20.30
2022-08-03T20:07:48.738Z,20.20
2022-08-03T20:10:20.127Z,20.00
2022-08-03T20:12:50.421Z,20.00
2022-08-03T20:15:31.116Z,20.00
2022-08-03T20:18:01.642Z,19.90
2022-08-03T20:20:35.053Z,19.80
2022-08-03T20:23:14.770Z,19.90
2022-08-03T20:25:58.897Z,20.20
2022-08-03T20:28:50.015Z,20.30
2022-08-03T20:31:25.143Z,20.10
2022-08-03T20:34:01.925Z,20.10
2022-08-03T20:36:30.703Z,20.10
2022-08-03T20:38:59.541Z,20.00
2022-08-03T20:41:28.414Z,20.00
2022-08-03T20:44:01.163Z,20.00
2022-08-03T20:46:41.393Z,20.10
2022-08-03T20:49:23.075Z,20.20
2022-08-03T20:51:54.514Z,20.30
2022-08-03T20:54:30.906Z,20.40
2022-08-03T20:57:03.562Z,20.50
2022-08-03T20:59:50.014Z,20.40
2022-08-03T21:02:30.514Z,20.30
2022-08-03T21:05:03.352Z,20.30
2022-08-03T21:08:06.952Z,20.20
2022-08-03T21:10:42.111Z,20.20
2022-08-03T21:13:04.438Z,24.80
2022-08-03T21:13:04.956Z,23.90
2022-08-03T21:16:11.246Z,20.10
2022-08-03T21:18:52.849Z,20.20
2022-08-03T21:21:24.496Z,20.10
2022-08-03T21:23:55.326Z,20.10
2022-08-03T21:26:26.869Z,20.10
2022-08-03T21:28:57.192Z,20.20
2022-08-03T21:31:26.762Z,20.20
2022-08-03T21:34:04.916Z,20.20
2022-08-03T21:36:37.340Z,20.20
2022-08-03T21:39:10.875Z,20.20
2022-08-03T21:41:41.526Z,20.20
2022-08-03T21:44:11.039Z,20.30
2022-08-03T21:46:46.509Z,20.40
2022-08-03T21:50:04.877Z,20.40
2022-08-03T21:52:09.030Z,20.40
2022-08-03T21:54:46.207Z,20.50
2022-08-03T21:57:28.747Z,20.50
2022-08-03T22:00:18.143Z,20.40
2022-08-03T22:02:54.742Z,20.40
2022-08-03T22:05:43.529Z,20.40
2022-08-03T22:08:16.068Z,20.50
2022-08-03T22:10:46.852Z,20.50
2022-08-03T22:13:42.862Z,20.40
2022-08-03T22:16:08.232Z,20.30
2022-08-03T22:18:38.958Z,20.20
2022-08-03T22:21:10.360Z,20.20
2022-08-03T22:23:43.814Z,20.20
2022-08-03T22:26:34.661Z,20.20
2022-08-03T22:29:08.366Z,20.20
2022-08-03T22:31:58.116Z,20.20
2022-08-03T22:34:27.326Z,20.10
2022-08-03T22:37:02.601Z,20.10
2022-08-03T22:39:30.876Z,20.00
2022-08-03T22:41:59.424Z,20.00
2022-08-03T22:44:28.000Z,20.00
2022-08-03T22:46:56.987Z,20.00
2022-08-03T22:49:28.230Z,20.00
2022-08-03T22:51:58.878Z,20.00
2022-08-03T22:54:27.940Z,20.10
2022-08-03T22:56:55.839Z,20.00
2022-08-03T22:59:40.195Z,20.00
2022-08-03T23:02:20.329Z,19.90
2022-08-03T23:04:56.370Z,19.90
2022-08-03T23:07:32.961Z,19.90
2022-08-03T23:10:04.098Z,19.80
2022-08-03T23:12:36.423Z,19.90
2022-08-03T23:15:08.846Z,19.90
2022-08-03T23:17:57.862Z,19.80
2022-08-03T23:20:29.109Z,19.80
2022-08-03T23:22:58.010Z,19.70
2022-08-03T23:25:26.673Z,19.80
2022-08-03T23:28:05.254Z,19.80
2022-08-03T23:30:38.277Z,19.80
2022-08-03T23:33:09.491Z,19.70
2022-08-03T23:36:27.930Z,19.80
2022-08-03T23:38:48.617Z,19.70
2022-08-03T23:41:18.720Z,19.70
2022-08-03T23:43:51.837Z,19.70
2022-08-03T23:46:27.412Z,19.60
2022-08-03T23:48:56.482Z,19.40
2022-08-03T23:51:48.244Z,19.30
2022-08-03T23:55:08.275Z,19.20
2022-08-03T23:58:15.419Z,19.20
